sensor_id;sensor_type;location;lat;lon;timestamp;pressure;altitude;pressure_sealevel;temperature;humidity
54022;BME280;39936;51.058;17.220;2023-01-10T00:02:55;100871.02;;;4.87;100.00
54022;BME280;39936;51.058;17.220;2023-01-10T00:06:28;100868.58;;;4.89;100.00
54022;BME280;39936;51.058;17.220;2023-01-10T00:09:58;100872.73;;;4.84;100.00
54022;BME280;39936;51.058;17.220;2023-01-10T00:13:28;100869.86;;;4.79;100.00
54022;BME280;39936;51.058;17.220;2023-01-10T00:16:42;100871.17;;;4.80;100.00
54022;BME280;39936;51.058;17.220;2023-01-10T00:20:20;100875.44;;;4.76;100.00
54022;BME280;39936;51.058;17.220;2023-01-10T00:23:54;100879.52;;;4.68;100.00
54022;BME280;39936;51.058;17.220;2023-01-10T00:27:44;100880.94;;;4.66;100.00
54022;BME280;39936;51.058;17.220;2023-01-10T00:31:20;100885.81;;;4.68;100.00
54022;BME280;39936;51.058;17.220;2023-01-10T00:35:16;100886.53;;;4.63;100.00
54022;BME280;39936;51.058;17.220;2023-01-10T00:38:51;100885.97;;;4.68;100.00
54022;BME280;39936;51.058;17.220;2023-01-10T00:42:21;100888.53;;;4.71;100.00
54022;BME280;39936;51.058;17.220;2023-01-10T00:46:08;100892.65;;;4.67;100.00
54022;BME280;39936;51.058;17.220;2023-01-10T00:49:50;100894.84;;;4.53;100.00
54022;BME280;39936;51.058;17.220;2023-01-10T00:53:48;100904.20;;;4.64;100.00
54022;BME280;39936;51.058;17.220;2023-01-10T00:57:21;100911.79;;;4.70;100.00
54022;BME280;39936;51.058;17.220;2023-01-10T01:01:02;100917.50;;;4.74;100.00
54022;BME280;39936;51.058;17.220;2023-01-10T01:04:34;100921.61;;;4.74;100.00
54022;BME280;39936;51.058;17.220;2023-01-10T01:08:01;100923.47;;;4.75;100.00
54022;BME280;39936;51.058;17.220;2023-01-10T01:11:29;100932.87;;;4.74;100.00
54022;BME280;39936;51.058;17.220;2023-01-10T01:15:07;100932.20;;;4.72;100.00
54022;BME280;39936;51.058;17.220;2023-01-10T01:18:36;100934.41;;;4.69;100.00
54022;BME280;39936;51.058;17.220;2023-01-10T01:22:16;100939.66;;;4.65;100.00
54022;BME280;39936;51.058;17.220;2023-01-10T01:25:29;100939.20;;;4.62;100.00
54022;BME280;39936;51.058;17.220;2023-01-10T01:28:44;100940.48;;;4.57;100.00
54022;BME280;39936;51.058;17.220;2023-01-10T01:32:31;100940.34;;;4.51;100.00
54022;BME280;39936;51.058;17.220;2023-01-10T01:36:07;100934.30;;;4.40;100.00
54022;BME280;39936;51.058;17.220;2023-01-10T01:39:48;100945.94;;;4.39;100.00
54022;BME280;39936;51.058;17.220;2023-01-10T01:43:04;100944.62;;;4.33;100.00
54022;BME280;39936;51.058;17.220;2023-01-10T01:46:26;100948.45;;;4.26;100.00
54022;BME280;39936;51.058;17.220;2023-01-10T01:49:40;100947.90;;;4.22;100.00
54022;BME280;39936;51.058;17.220;2023-01-10T01:53:14;100949.36;;;4.20;100.00
54022;BME280;39936;51.058;17.220;2023-01-10T01:57:26;100956.39;;;4.21;100.00
54022;BME280;39936;51.058;17.220;2023-01-10T02:00:38;100954.15;;;4.22;100.00
54022;BME280;39936;51.058;17.220;2023-01-10T02:04:14;100956.34;;;4.22;100.00
54022;BME280;39936;51.058;17.220;2023-01-10T02:07:59;100960.69;;;4.23;100.00
54022;BME280;39936;51.058;17.220;2023-01-10T02:11:11;100968.84;;;4.25;100.00
54022;BME280;39936;51.058;17.220;2023-01-10T02:14:23;100972.56;;;4.27;100.00
54022;BME280;39936;51.058;17.220;2023-01-10T02:18:02;100973.20;;;4.29;100.00
54022;BME280;39936;51.058;17.220;2023-01-10T02:43:56;101001.09;;;4.65;100.00
54022;BME280;39936;51.058;17.220;2023-01-10T02:47:35;101009.03;;;4.66;100.00
54022;BME280;39936;51.058;17.220;2023-01-10T02:51:31;101014.91;;;4.68;100.00
54022;BME280;39936;51.058;17.220;2023-01-10T02:55:32;101024.33;;;4.73;100.00
54022;BME280;39936;51.058;17.220;2023-01-10T03:02:49;101030.17;;;4.78;100.00
54022;BME280;39936;51.058;17.220;2023-01-10T03:06:30;101043.25;;;4.77;100.00
54022;BME280;39936;51.058;17.220;2023-01-10T03:16:29;101062.79;;;4.82;100.00
54022;BME280;39936;51.058;17.220;2023-01-10T03:20:24;101066.28;;;4.80;100.00
54022;BME280;39936;51.058;17.220;2023-01-10T03:24:17;101071.20;;;4.79;100.00
54022;BME280;39936;51.058;17.220;2023-01-10T03:28:10;101084.70;;;4.78;100.00
54022;BME280;39936;51.058;17.220;2023-01-10T03:31:22;101090.91;;;4.76;100.00
54022;BME280;39936;51.058;17.220;2023-01-10T03:39:29;101098.02;;;4.79;100.00
54022;BME280;39936;51.058;17.220;2023-01-10T03:46:56;101111.09;;;4.75;100.00
54022;BME280;39936;51.058;17.220;2023-01-10T03:50:23;101112.15;;;4.73;100.00
54022;BME280;39936;51.058;17.220;2023-01-10T03:54:06;101114.73;;;4.73;100.00
54022;BME280;39936;51.058;17.220;2023-01-10T03:57:41;101117.81;;;4.73;100.00
54022;BME280;39936;51.058;17.220;2023-01-10T04:01:16;101126.35;;;4.75;100.00
54022;BME280;39936;51.058;17.220;2023-01-10T04:04:22;101127.78;;;4.77;100.00
54022;BME280;39936;51.058;17.220;2023-01-10T04:07:33;101133.45;;;4.79;100.00
54022;BME280;39936;51.058;17.220;2023-01-10T04:11:09;101135.11;;;4.79;100.00
54022;BME280;39936;51.058;17.220;2023-01-10T04:14:31;101136.70;;;4.77;100.00
54022;BME280;39936;51.058;17.220;2023-01-10T04:17:44;101142.30;;;4.76;100.00
54022;BME280;39936;51.058;17.220;2023-01-10T04:20:57;101152.55;;;4.75;100.00
54022;BME280;39936;51.058;17.220;2023-01-10T04:25:15;101166.23;;;4.75;100.00
54022;BME280;39936;51.058;17.220;2023-01-10T04:28:54;101172.02;;;4.77;100.00
54022;BME280;39936;51.058;17.220;2023-01-10T04:32:04;101179.16;;;4.78;100.00
54022;BME280;39936;51.058;17.220;2023-01-10T04:35:36;101188.61;;;4.74;100.00
54022;BME280;39936;51.058;17.220;2023-01-10T04:39:13;101194.96;;;4.70;100.00
54022;BME280;39936;51.058;17.220;2023-01-10T04:42:31;101200.84;;;4.68;100.00
54022;BME280;39936;51.058;17.220;2023-01-10T04:46:04;101209.41;;;4.66;100.00
54022;BME280;39936;51.058;17.220;2023-01-10T04:49:35;101218.25;;;4.62;100.00
54022;BME280;39936;51.058;17.220;2023-01-10T04:53:03;101226.99;;;4.61;100.00
54022;BME280;39936;51.058;17.220;2023-01-10T04:56:29;101230.37;;;4.58;100.00
54022;BME280;39936;51.058;17.220;2023-01-10T04:59:36;101231.29;;;4.55;100.00
54022;BME280;39936;51.058;17.220;2023-01-10T05:03:07;101237.29;;;4.54;100.00
54022;BME280;39936;51.058;17.220;2023-01-10T05:06:46;101246.53;;;4.51;100.00
54022;BME280;39936;51.058;17.220;2023-01-10T05:09:59;101246.77;;;4.51;100.00
54022;BME280;39936;51.058;17.220;2023-01-10T05:14:26;101247.52;;;4.49;100.00
54022;BME280;39936;51.058;17.220;2023-01-10T05:21:53;101261.71;;;4.49;100.00
54022;BME280;39936;51.058;17.220;2023-01-10T05:25:22;101269.48;;;4.48;100.00
54022;BME280;39936;51.058;17.220;2023-01-10T05:28:50;101281.30;;;4.47;100.00
54022;BME280;39936;51.058;17.220;2023-01-10T05:32:18;101284.27;;;4.46;100.00
54022;BME280;39936;51.058;17.220;2023-01-10T05:35:47;101292.62;;;4.44;100.00
54022;BME280;39936;51.058;17.220;2023-01-10T05:38:58;101295.65;;;4.44;100.00
54022;BME280;39936;51.058;17.220;2023-01-10T05:42:08;101297.43;;;4.43;100.00
54022;BME280;39936;51.058;17.220;2023-01-10T05:45:47;101295.70;;;4.34;100.00
54022;BME280;39936;51.058;17.220;2023-01-10T05:48:56;101312.66;;;4.37;100.00
54022;BME280;39936;51.058;17.220;2023-01-10T05:52:23;101322.15;;;4.35;100.00
54022;BME280;39936;51.058;17.220;2023-01-10T05:55:39;101324.73;;;4.32;100.00
54022;BME280;39936;51.058;17.220;2023-01-10T05:58:47;101330.99;;;4.32;100.00
54022;BME280;39936;51.058;17.220;2023-01-10T06:01:57;101332.03;;;4.32;100.00
54022;BME280;39936;51.058;17.220;2023-01-10T06:05:07;101336.53;;;4.32;100.00
54022;BME280;39936;51.058;17.220;2023-01-10T06:08:19;101339.11;;;4.31;100.00
54022;BME280;39936;51.058;17.220;2023-01-10T06:11:32;101351.53;;;4.32;100.00
54022;BME280;39936;51.058;17.220;2023-01-10T06:14:57;101353.98;;;4.32;100.00
54022;BME280;39936;51.058;17.220;2023-01-10T06:18:13;101366.85;;;4.32;100.00
54022;BME280;39936;51.058;17.220;2023-01-10T06:21:46;101374.59;;;4.32;100.00
54022;BME280;39936;51.058;17.220;2023-01-10T06:24:56;101379.96;;;4.32;100.00
54022;BME280;39936;51.058;17.220;2023-01-10T06:28:07;101390.46;;;4.32;100.00
54022;BME280;39936;51.058;17.220;2023-01-10T06:31:17;101392.42;;;4.30;100.00
54022;BME280;39936;51.058;17.220;2023-01-10T06:34:46;101403.46;;;4.30;100.00
54022;BME280;39936;51.058;17.220;2023-01-10T06:37:58;101409.48;;;4.31;100.00
54022;BME280;39936;51.058;17.220;2023-01-10T06:41:11;101417.83;;;4.31;100.00
54022;BME280;39936;51.058;17.220;2023-01-10T06:44:23;101425.14;;;4.31;100.00
54022;BME280;39936;51.058;17.220;2023-01-10T06:47:55;101435.34;;;4.32;100.00
54022;BME280;39936;51.058;17.220;2023-01-10T06:51:29;101440.96;;;4.33;100.00
54022;BME280;39936;51.058;17.220;2023-01-10T06:54:36;101449.25;;;4.34;100.00
54022;BME280;39936;51.058;17.220;2023-01-10T06:58:12;101456.31;;;4.32;100.00
54022;BME280;39936;51.058;17.220;2023-01-10T07:01:37;101466.16;;;4.30;100.00
54022;BME280;39936;51.058;17.220;2023-01-10T07:05:49;101464.03;;;4.24;100.00
54022;BME280;39936;51.058;17.220;2023-01-10T07:09:52;101478.95;;;4.30;100.00
54022;BME280;39936;51.058;17.220;2023-01-10T07:13:17;101487.84;;;4.31;100.00
54022;BME280;39936;51.058;17.220;2023-01-10T07:16:30;101489.70;;;4.29;100.00
54022;BME280;39936;51.058;17.220;2023-01-10T07:20:31;101492.80;;;4.28;100.00
54022;BME280;39936;51.058;17.220;2023-01-10T07:23:51;101495.95;;;4.28;100.00
54022;BME280;39936;51.058;17.220;2023-01-10T07:26:59;101501.70;;;4.27;100.00
54022;BME280;39936;51.058;17.220;2023-01-10T07:30:58;101435.72;;;3.75;100.00
54022;BME280;39936;51.058;17.220;2023-01-10T07:34:28;101516.69;;;4.23;100.00
54022;BME280;39936;51.058;17.220;2023-01-10T07:37:36;101519.23;;;4.22;100.00
54022;BME280;39936;51.058;17.220;2023-01-10T07:41:40;101528.70;;;4.21;100.00
54022;BME280;39936;51.058;17.220;2023-01-10T07:45:44;101535.56;;;4.23;100.00
54022;BME280;39936;51.058;17.220;2023-01-10T07:49:06;101538.41;;;4.23;100.00
54022;BME280;39936;51.058;17.220;2023-01-10T07:52:57;101545.91;;;4.24;100.00
54022;BME280;39936;51.058;17.220;2023-01-10T07:56:05;101548.47;;;4.25;100.00
54022;BME280;39936;51.058;17.220;2023-01-10T07:59:41;101555.48;;;4.25;100.00
54022;BME280;39936;51.058;17.220;2023-01-10T08:03:13;101559.01;;;4.26;100.00
54022;BME280;39936;51.058;17.220;2023-01-10T08:06:43;101562.60;;;4.27;100.00
54022;BME280;39936;51.058;17.220;2023-01-10T08:22:49;101556.67;;;4.08;100.00
54022;BME280;39936;51.058;17.220;2023-01-10T08:26:31;101595.89;;;4.31;100.00
54022;BME280;39936;51.058;17.220;2023-01-10T08:30:26;101600.52;;;4.34;100.00
54022;BME280;39936;51.058;17.220;2023-01-10T08:33:57;101604.43;;;4.33;100.00
54022;BME280;39936;51.058;17.220;2023-01-10T08:37:14;101601.38;;;4.32;100.00
54022;BME280;39936;51.058;17.220;2023-01-10T08:40:47;101602.80;;;4.30;100.00
54022;BME280;39936;51.058;17.220;2023-01-10T08:44:15;101603.79;;;4.32;100.00
54022;BME280;39936;51.058;17.220;2023-01-10T08:47:30;101612.58;;;4.32;100.00
54022;BME280;39936;51.058;17.220;2023-01-10T08:51:35;101613.73;;;4.35;100.00
54022;BME280;39936;51.058;17.220;2023-01-10T08:54:54;101613.69;;;4.38;100.00
54022;BME280;39936;51.058;17.220;2023-01-10T08:58:02;101585.20;;;4.15;100.00
54022;BME280;39936;51.058;17.220;2023-01-10T09:04:02;101621.82;;;4.40;100.00
54022;BME280;39936;51.058;17.220;2023-01-10T09:07:16;101631.83;;;4.47;100.00
54022;BME280;39936;51.058;17.220;2023-01-10T09:10:45;101637.05;;;4.46;100.00
54022;BME280;39936;51.058;17.220;2023-01-10T09:14:06;101641.04;;;4.47;100.00
54022;BME280;39936;51.058;17.220;2023-01-10T09:17:44;101654.27;;;4.46;100.00
54022;BME280;39936;51.058;17.220;2023-01-10T09:21:00;101664.70;;;4.47;100.00
54022;BME280;39936;51.058;17.220;2023-01-10T09:24:43;101662.90;;;4.49;100.00
54022;BME280;39936;51.058;17.220;2023-01-10T09:29:03;101665.14;;;4.52;100.00
54022;BME280;39936;51.058;17.220;2023-01-10T09:33:34;101671.01;;;4.57;100.00
54022;BME280;39936;51.058;17.220;2023-01-10T09:38:11;101681.20;;;4.63;100.00
54022;BME280;39936;51.058;17.220;2023-01-10T09:41:45;101689.03;;;4.68;100.00
54022;BME280;39936;51.058;17.220;2023-01-10T09:45:05;101688.09;;;4.68;100.00
54022;BME280;39936;51.058;17.220;2023-01-10T09:52:00;101691.31;;;4.73;100.00
54022;BME280;39936;51.058;17.220;2023-01-10T09:55:45;101696.66;;;4.75;100.00
54022;BME280;39936;51.058;17.220;2023-01-10T09:59:43;101703.67;;;4.77;100.00
54022;BME280;39936;51.058;17.220;2023-01-10T10:06:32;101715.52;;;4.82;100.00
54022;BME280;39936;51.058;17.220;2023-01-10T10:09:49;101720.70;;;4.84;100.00
54022;BME280;39936;51.058;17.220;2023-01-10T10:13:25;101718.75;;;4.88;100.00
54022;BME280;39936;51.058;17.220;2023-01-10T10:24:40;101734.47;;;5.04;100.00
54022;BME280;39936;51.058;17.220;2023-01-10T10:36:07;101738.17;;;5.07;100.00
54022;BME280;39936;51.058;17.220;2023-01-10T10:42:50;101741.98;;;5.13;100.00
54022;BME280;39936;51.058;17.220;2023-01-10T10:46:08;101737.05;;;5.15;100.00
54022;BME280;39936;51.058;17.220;2023-01-10T10:54:11;101741.27;;;5.17;100.00
54022;BME280;39936;51.058;17.220;2023-01-10T11:01:22;101730.76;;;5.22;100.00
54022;BME280;39936;51.058;17.220;2023-01-10T11:09:38;101740.83;;;5.26;100.00
54022;BME280;39936;51.058;17.220;2023-01-10T11:12:56;101740.35;;;5.29;100.00
54022;BME280;39936;51.058;17.220;2023-01-10T11:16:43;101747.56;;;5.31;100.00
54022;BME280;39936;51.058;17.220;2023-01-10T11:20:15;101753.45;;;5.34;100.00
54022;BME280;39936;51.058;17.220;2023-01-10T11:24:50;101755.10;;;5.37;100.00
54022;BME280;39936;51.058;17.220;2023-01-10T11:28:24;101752.16;;;5.37;100.00
54022;BME280;39936;51.058;17.220;2023-01-10T11:32:12;101758.45;;;5.37;100.00
54022;BME280;39936;51.058;17.220;2023-01-10T11:40:12;101773.73;;;5.39;100.00
54022;BME280;39936;51.058;17.220;2023-01-10T11:47:09;101776.68;;;5.39;100.00
54022;BME280;39936;51.058;17.220;2023-01-10T11:50:55;101777.16;;;5.42;100.00
54022;BME280;39936;51.058;17.220;2023-01-10T11:55:09;101778.69;;;5.45;100.00
54022;BME280;39936;51.058;17.220;2023-01-10T11:58:19;101775.96;;;5.50;100.00
54022;BME280;39936;51.058;17.220;2023-01-10T12:01:40;101789.19;;;5.51;100.00
54022;BME280;39936;51.058;17.220;2023-01-10T12:04:54;101797.30;;;5.51;100.00
54022;BME280;39936;51.058;17.220;2023-01-10T12:08:21;101796.80;;;5.52;100.00
54022;BME280;39936;51.058;17.220;2023-01-10T12:11:31;101800.02;;;5.51;100.00
54022;BME280;39936;51.058;17.220;2023-01-10T12:14:51;101803.25;;;5.52;100.00
54022;BME280;39936;51.058;17.220;2023-01-10T12:22:15;101807.95;;;5.54;100.00
54022;BME280;39936;51.058;17.220;2023-01-10T12:25:42;101814.96;;;5.55;100.00
54022;BME280;39936;51.058;17.220;2023-01-10T12:32:47;101813.42;;;5.63;100.00
54022;BME280;39936;51.058;17.220;2023-01-10T12:52:34;101834.59;;;5.63;100.00
54022;BME280;39936;51.058;17.220;2023-01-10T12:56:15;101855.77;;;5.63;100.00
54022;BME280;39936;51.058;17.220;2023-01-10T13:08:18;101865.51;;;5.62;100.00
54022;BME280;39936;51.058;17.220;2023-01-10T13:11:35;101858.02;;;5.63;100.00
54022;BME280;39936;51.058;17.220;2023-01-10T13:15:09;101853.93;;;5.62;100.00
54022;BME280;39936;51.058;17.220;2023-01-10T13:19:22;101872.98;;;5.63;100.00
54022;BME280;39936;51.058;17.220;2023-01-10T13:27:34;101872.42;;;5.67;100.00
54022;BME280;39936;51.058;17.220;2023-01-10T13:30:52;101876.64;;;5.61;100.00
54022;BME280;39936;51.058;17.220;2023-01-10T13:34:21;101885.95;;;5.52;100.00
54022;BME280;39936;51.058;17.220;2023-01-10T13:37:53;101898.19;;;5.44;100.00
54022;BME280;39936;51.058;17.220;2023-01-10T13:45:31;101917.80;;;5.34;100.00
54022;BME280;39936;51.058;17.220;2023-01-10T13:52:20;101927.55;;;5.24;100.00
54022;BME280;39936;51.058;17.220;2023-01-10T14:07:45;101948.41;;;4.97;100.00
54022;BME280;39936;51.058;17.220;2023-01-10T14:18:51;101964.39;;;4.95;100.00
54022;BME280;39936;51.058;17.220;2023-01-10T14:22:29;101967.50;;;4.96;100.00
54022;BME280;39936;51.058;17.220;2023-01-10T14:26:33;101974.02;;;4.95;100.00
54022;BME280;39936;51.058;17.220;2023-01-10T14:30:38;101971.99;;;4.96;100.00
54022;BME280;39936;51.058;17.220;2023-01-10T14:34:33;101961.38;;;4.95;100.00
54022;BME280;39936;51.058;17.220;2023-01-10T14:38:29;101961.44;;;4.93;100.00
54022;BME280;39936;51.058;17.220;2023-01-10T14:42:47;101966.24;;;4.93;100.00
54022;BME280;39936;51.058;17.220;2023-01-10T14:46:09;101972.08;;;4.93;100.00
54022;BME280;39936;51.058;17.220;2023-01-10T14:49:50;101981.98;;;4.93;100.00
54022;BME280;39936;51.058;17.220;2023-01-10T14:54:10;101985.31;;;4.92;100.00
54022;BME280;39936;51.058;17.220;2023-01-10T14:58:15;101988.97;;;4.93;100.00
54022;BME280;39936;51.058;17.220;2023-01-10T15:01:41;101993.30;;;4.92;100.00
54022;BME280;39936;51.058;17.220;2023-01-10T15:05:59;102001.21;;;4.88;100.00
54022;BME280;39936;51.058;17.220;2023-01-10T15:09:34;102007.23;;;4.84;100.00
54022;BME280;39936;51.058;17.220;2023-01-10T15:13:50;102012.49;;;4.82;100.00
54022;BME280;39936;51.058;17.220;2023-01-10T15:17:03;102018.73;;;4.81;100.00
54022;BME280;39936;51.058;17.220;2023-01-10T15:20:18;102021.24;;;4.66;100.00
54022;BME280;39936;51.058;17.220;2023-01-10T15:23:44;102025.04;;;4.54;100.00
54022;BME280;39936;51.058;17.220;2023-01-10T15:26:52;102031.70;;;4.39;100.00
54022;BME280;39936;51.058;17.220;2023-01-10T15:30:25;102025.59;;;4.36;100.00
54022;BME280;39936;51.058;17.220;2023-01-10T15:33:47;102026.23;;;4.35;100.00
54022;BME280;39936;51.058;17.220;2023-01-10T15:37:05;102034.55;;;4.31;100.00
54022;BME280;39936;51.058;17.220;2023-01-10T15:40:40;102042.51;;;4.36;100.00
54022;BME280;39936;51.058;17.220;2023-01-10T15:47:51;102053.39;;;4.37;100.00
54022;BME280;39936;51.058;17.220;2023-01-10T15:51:46;102058.55;;;4.30;100.00
54022;BME280;39936;51.058;17.220;2023-01-10T16:03:00;102052.05;;;4.41;100.00
54022;BME280;39936;51.058;17.220;2023-01-10T16:06:38;102060.71;;;4.43;100.00
54022;BME280;39936;51.058;17.220;2023-01-10T16:13:54;102062.07;;;4.52;100.00
54022;BME280;39936;51.058;17.220;2023-01-10T16:17:58;102063.77;;;4.55;100.00
54022;BME280;39936;51.058;17.220;2023-01-10T16:22:07;102070.18;;;4.56;100.00
54022;BME280;39936;51.058;17.220;2023-01-10T16:25:34;102078.45;;;4.56;100.00
54022;BME280;39936;51.058;17.220;2023-01-10T16:29:00;102079.80;;;4.54;100.00
54022;BME280;39936;51.058;17.220;2023-01-10T16:33:10;102084.49;;;4.53;100.00
54022;BME280;39936;51.058;17.220;2023-01-10T16:36:35;102089.08;;;4.53;100.00
54022;BME280;39936;51.058;17.220;2023-01-10T16:39:48;102059.17;;;4.32;100.00
54022;BME280;39936;51.058;17.220;2023-01-10T16:43:31;102091.27;;;4.54;100.00
54022;BME280;39936;51.058;17.220;2023-01-10T16:47:25;102092.29;;;4.55;100.00
54022;BME280;39936;51.058;17.220;2023-01-10T17:02:40;102106.75;;;4.55;100.00
54022;BME280;39936;51.058;17.220;2023-01-10T17:06:12;102096.48;;;4.56;100.00
54022;BME280;39936;51.058;17.220;2023-01-10T17:10:09;102100.93;;;4.57;100.00
54022;BME280;39936;51.058;17.220;2023-01-10T17:13:45;102108.41;;;4.59;100.00
54022;BME280;39936;51.058;17.220;2023-01-10T17:17:41;102120.90;;;4.58;100.00
54022;BME280;39936;51.058;17.220;2023-01-10T17:21:15;102128.20;;;4.56;100.00
54022;BME280;39936;51.058;17.220;2023-01-10T17:25:11;102133.77;;;4.53;100.00
54022;BME280;39936;51.058;17.220;2023-01-10T17:28:55;102126.89;;;4.41;100.00
54022;BME280;39936;51.058;17.220;2023-01-10T17:32:07;102138.44;;;4.51;100.00
54022;BME280;39936;51.058;17.220;2023-01-10T17:36:01;102149.67;;;4.53;100.00
54022;BME280;39936;51.058;17.220;2023-01-10T17:39:13;102148.82;;;4.55;100.00
54022;BME280;39936;51.058;17.220;2023-01-10T17:43:12;102150.24;;;4.54;100.00
54022;BME280;39936;51.058;17.220;2023-01-10T17:46:50;102147.22;;;4.55;100.00
54022;BME280;39936;51.058;17.220;2023-01-10T17:54:15;102145.05;;;4.59;100.00
54022;BME280;39936;51.058;17.220;2023-01-10T17:58:20;102150.46;;;4.61;100.00
54022;BME280;39936;51.058;17.220;2023-01-10T18:02:39;102154.55;;;4.65;100.00
54022;BME280;39936;51.058;17.220;2023-01-10T18:05:52;102156.23;;;4.71;100.00
54022;BME280;39936;51.058;17.220;2023-01-10T18:09:44;102168.14;;;4.66;100.00
54022;BME280;39936;51.058;17.220;2023-01-10T18:13:33;102167.42;;;4.65;100.00
54022;BME280;39936;51.058;17.220;2023-01-10T18:16:47;102169.46;;;4.59;100.00
54022;BME280;39936;51.058;17.220;2023-01-10T18:24:01;102165.00;;;4.36;100.00
54022;BME280;39936;51.058;17.220;2023-01-10T18:27:16;102179.65;;;4.46;100.00
54022;BME280;39936;51.058;17.220;2023-01-10T18:30:28;102181.56;;;4.43;100.00
54022;BME280;39936;51.058;17.220;2023-01-10T18:34:33;102185.66;;;4.42;100.00
54022;BME280;39936;51.058;17.220;2023-01-10T18:38:35;102195.82;;;4.43;100.00
54022;BME280;39936;51.058;17.220;2023-01-10T18:42:04;102199.96;;;4.37;100.00
54022;BME280;39936;51.058;17.220;2023-01-10T18:45:15;102196.92;;;4.43;100.00
54022;BME280;39936;51.058;17.220;2023-01-10T18:49:29;102197.05;;;4.43;100.00
54022;BME280;39936;51.058;17.220;2023-01-10T18:52:55;102196.85;;;4.37;100.00
54022;BME280;39936;51.058;17.220;2023-01-10T18:56:58;102196.53;;;4.32;100.00
54022;BME280;39936;51.058;17.220;2023-01-10T19:04:32;102193.15;;;4.27;100.00
54022;BME280;39936;51.058;17.220;2023-01-10T19:08:01;102188.19;;;4.31;100.00
54022;BME280;39936;51.058;17.220;2023-01-10T19:12:03;102201.70;;;4.32;100.00
54022;BME280;39936;51.058;17.220;2023-01-10T19:15:38;102204.34;;;4.38;100.00
54022;BME280;39936;51.058;17.220;2023-01-10T19:23:17;102208.28;;;4.37;100.00
54022;BME280;39936;51.058;17.220;2023-01-10T19:26:51;102210.65;;;4.36;100.00
54022;BME280;39936;51.058;17.220;2023-01-10T19:30:19;102206.70;;;4.35;100.00
54022;BME280;39936;51.058;17.220;2023-01-10T19:33:40;102209.04;;;4.33;100.00
54022;BME280;39936;51.058;17.220;2023-01-10T19:37:26;102212.02;;;4.34;100.00
54022;BME280;39936;51.058;17.220;2023-01-10T19:40:53;102211.13;;;4.28;100.00
54022;BME280;39936;51.058;17.220;2023-01-10T19:44:05;102210.26;;;4.30;100.00
54022;BME280;39936;51.058;17.220;2023-01-10T19:47:58;102204.30;;;4.29;100.00
54022;BME280;39936;51.058;17.220;2023-01-10T19:51:28;102200.67;;;4.32;100.00
54022;BME280;39936;51.058;17.220;2023-01-10T19:55:12;102200.34;;;4.32;100.00
54022;BME280;39936;51.058;17.220;2023-01-10T19:58:44;102201.58;;;4.31;100.00
54022;BME280;39936;51.058;17.220;2023-01-10T20:02:00;102203.37;;;4.14;100.00
54022;BME280;39936;51.058;17.220;2023-01-10T20:06:10;102204.06;;;4.10;100.00
54022;BME280;39936;51.058;17.220;2023-01-10T20:09:27;102209.47;;;4.12;100.00
54022;BME280;39936;51.058;17.220;2023-01-10T20:12:56;102209.95;;;4.15;100.00
54022;BME280;39936;51.058;17.220;2023-01-10T20:16:25;102207.62;;;4.13;100.00
54022;BME280;39936;51.058;17.220;2023-01-10T20:19:47;102212.63;;;4.16;100.00
54022;BME280;39936;51.058;17.220;2023-01-10T20:22:58;102213.19;;;4.20;100.00
54022;BME280;39936;51.058;17.220;2023-01-10T20:26:15;102210.82;;;4.21;100.00
54022;BME280;39936;51.058;17.220;2023-01-10T20:29:51;102208.67;;;4.18;100.00
54022;BME280;39936;51.058;17.220;2023-01-10T20:33:10;102210.00;;;4.17;100.00
54022;BME280;39936;51.058;17.220;2023-01-10T20:36:20;102213.86;;;4.18;100.00
54022;BME280;39936;51.058;17.220;2023-01-10T20:39:29;102214.26;;;4.19;100.00
54022;BME280;39936;51.058;17.220;2023-01-10T20:42:48;102204.93;;;4.07;100.00
54022;BME280;39936;51.058;17.220;2023-01-10T20:46:04;102203.30;;;3.96;100.00
54022;BME280;39936;51.058;17.220;2023-01-10T20:49:16;102207.72;;;3.87;100.00
54022;BME280;39936;51.058;17.220;2023-01-10T20:52:31;102208.64;;;3.80;100.00
54022;BME280;39936;51.058;17.220;2023-01-10T20:55:42;102211.58;;;3.81;100.00
54022;BME280;39936;51.058;17.220;2023-01-10T20:59:23;102208.88;;;3.76;100.00
54022;BME280;39936;51.058;17.220;2023-01-10T21:02:59;102207.78;;;3.75;100.00
54022;BME280;39936;51.058;17.220;2023-01-10T21:06:35;102193.39;;;3.71;100.00
54022;BME280;39936;51.058;17.220;2023-01-10T21:13:42;102200.94;;;3.75;100.00
54022;BME280;39936;51.058;17.220;2023-01-10T21:17:38;102202.34;;;3.77;100.00
54022;BME280;39936;51.058;17.220;2023-01-10T21:21:26;102199.59;;;3.87;100.00
54022;BME280;39936;51.058;17.220;2023-01-10T21:24:59;102198.84;;;3.91;100.00
54022;BME280;39936;51.058;17.220;2023-01-10T21:29:00;102202.50;;;3.99;100.00
54022;BME280;39936;51.058;17.220;2023-01-10T21:33:00;102202.05;;;4.04;100.00
54022;BME280;39936;51.058;17.220;2023-01-10T21:36:44;102199.74;;;4.14;100.00
54022;BME280;39936;51.058;17.220;2023-01-10T21:39:54;102199.85;;;4.16;100.00
54022;BME280;39936;51.058;17.220;2023-01-10T21:49:56;102202.34;;;4.24;100.00
54022;BME280;39936;51.058;17.220;2023-01-10T22:03:51;102206.28;;;4.23;100.00
54022;BME280;39936;51.058;17.220;2023-01-10T22:07:56;102209.95;;;4.26;100.00
54022;BME280;39936;51.058;17.220;2023-01-10T22:11:31;102209.21;;;4.27;100.00
54022;BME280;39936;51.058;17.220;2023-01-10T22:15:46;102208.85;;;4.30;100.00
54022;BME280;39936;51.058;17.220;2023-01-10T22:19:54;102201.51;;;4.32;100.00